Detalii statie ROAGROLTAL [00001D0B]

Toti senzorii

Date Temperatura solului [C]Precipitatii [mm]Voltaj baterie [mV]Leaf Wetness [Min]HC Air temperature [C]HC Relative humidity [%]Punctul de roua [C]
medieminmaxsumaultimatimpmedieminmaxmediemediemin
2018-08-12 11:00:00 26.8 26.5 27.3 0 7226 29.53 28.76 30.64 47.74 17 15.9
2018-08-12 12:00:00 27.7 27.4 28.2 0 7226 30.76 28.33 32.36 42.53 16.3 15.2
2018-08-12 13:00:00 28.6 28.2 29.1 0 7226 31.69 31.17 32.09 40.06 16.2 15.8
2018-08-12 14:00:00 29.6 29.1 30 0 7226 32.51 30.63 34.04 39.07 16.5 15.5
2018-08-12 15:00:00 30.4 30.2 30.7 0 7206 30.63 29.44 32.74 41.18 15.7 14.9
2018-08-12 16:00:00 30.7 30.5 31 0 7216 31.14 28.95 32.68 41.21 16.1 14.9
2018-08-12 17:00:00 30.8 30.7 31 0 7148 31.09 30.3 31.76 40.3 15.7 14.9
2018-08-12 18:00:00 30.9 30.9 31.1 0 7088 30.09 29.03 31.24 41.27 15.2 14.5
2018-08-12 19:00:00 30.7 30.5 31 0 7020 27.52 26.88 28.81 49.21 15.6 15.2
2018-08-12 20:00:00 30.2 29.9 30.5 0 6942 24.53 23.66 26.28 56.24 15 14.6
2018-08-12 21:00:00 29.6 29.5 29.9 0 6884 23.45 22.81 23.99 58.47 14.6 13.8
2018-08-12 22:00:00 29.1 28.6 29.4 0 6806 22.01 20.97 22.76 68.24 15.7 15.6
2018-08-12 23:00:00 28.7 28.5 28.9 0 6796 20.31 19.91 20.66 73.92 15.3 14.9
2018-08-13 00:00:00 28.2 28.1 28.5 0 6796 19.47 18.9 20.09 75.54 14.9 14.8
2018-08-13 01:00:00 27.8 27.7 28.1 0 6796 17.91 17.06 18.95 83.03 14.8 14.6
2018-08-13 02:00:00 27.5 27.3 27.7 0 6786 17.04 16.91 17.2 86.71 14.6 14.5
2018-08-13 03:00:00 27.1 27 27.3 0 6796 16.13 15.49 17.18 95.39 15.2 14.7
2018-08-13 04:00:00 26.8 26.7 27 0 6786 15.35 14.83 15.75 100 15.3 14.8
2018-08-13 05:00:00 26.5 26.4 26.8 0 6776 15.26 14.82 15.88 100 15.2 14.8
2018-08-13 06:00:00 26.2 26 26.4 0 6806 15.36 14.63 16.42 99.45 15.2 14.6
2018-08-13 07:00:00 25.9 25.8 26.2 0 7010 18.01 16.65 20.18 86.52 15.5 15.2
2018-08-13 08:00:00 25.8 25.8 26 0 7246 22.25 20.55 24.6 70.64 16.4 16.1
2018-08-13 09:00:00 26 25.9 26.2 0 7236 25.92 24.33 27.42 57.44 16.6 15.8
2018-08-13 10:00:00 26.4 26.2 26.7 0 7236 28.87 27.73 29.93 48.83 16.8 16
2018-08-13 11:00:00 27 26.7 27.4 0 7226 30.58 29.74 31.91 44.27 16.7 15.8
2018-08-13 12:00:00 27.9 27.6 28.2 0 7226 31.29 30.52 32.21 42.23 16.7 15.8
2018-08-13 13:00:00 28.9 28.5 29.3 0 7226 32.12 31.36 33.31 39.84 16.5 15.5
2018-08-13 14:00:00 29.8 29.4 30.3 0 7226 32.04 31.29 32.58 38.05 15.7 14.6
2018-08-13 15:00:00 30.8 30.5 31.2 0 7226 32.52 31.88 33.27 36.85 15.6 14.4
2018-08-13 16:00:00 31.4 31.2 31.7 0 7206 32.21 31.73 32.89 35.8 14.9 14.2
2018-08-13 17:00:00 31.6 31.6 31.8 0 7128 31.64 30.99 32.17 37.4 15 14.1
2018-08-13 18:00:00 31.7 31.6 31.8 0 7088 30.22 28.93 30.96 39.36 14.6 13.9
2018-08-13 19:00:00 31.3 31.2 31.7 0 7020 27.89 26.07 29.08 43.39 14 13.4
2018-08-13 20:00:00 30.7 30.4 31.1 0 6952 24.61 23.35 25.78 50.38 13.4 13.2
2018-08-13 21:00:00 30.1 29.9 30.5 0 6884 23.68 23.11 24.47 50.9 12.7 12.3
2018-08-13 22:00:00 29.5 29.3 29.8 0 6826 21.82 20.94 22.87 55.48 12.3 12.1
2018-08-13 23:00:00 29 28.8 29.4 0 6826 20.65 19.72 21.2 60.04 12.4 12.3
2018-08-14 00:00:00 28.5 28.3 28.8 0 6816 19.29 18.92 19.76 65.01 12.4 12.2
2018-08-14 01:00:00 28.1 27.8 28.4 0 6806 18.2 17.07 19.28 69.46 12.3 12.1
2018-08-14 02:00:00 27.6 27.5 27.8 0 6806 15.92 15.3 16.98 81.9 12.7 12.5
2018-08-14 03:00:00 27.2 27.1 27.5 0 6796 14.55 14.15 15.36 90.11 12.8 12.5
2018-08-14 04:00:00 26.9 26.8 27.1 0 6786 13.47 13.21 13.76 97.01 12.8 12.6
2018-08-14 05:00:00 26.5 26.3 26.8 0 6766 14.07 13.02 15.04 93.52 12.9 12.5
2018-08-14 06:00:00 26.2 26 26.4 0 6786 13.84 13.36 15.1 94.11 12.8 12.1
2018-08-14 07:00:00 25.9 25.8 26.1 0 7020 19.54 16.2 21.8 70.33 13.7 13.2
2018-08-14 08:00:00 25.8 25.6 26 0 7246 23.41 22.16 25.02 59.72 14.9 14.1
2018-08-14 09:00:00 26 25.7 26.2 0 7246 26.12 25.19 27.88 55.38 16.2 15.7
2018-08-14 10:00:00 26.4 26.1 26.8 0 7236 28.46 27.21 29.43 46.55 15.7 14.4